Data for 08/18/2007

Time Sea-Level Adjusted Pressure Absolute Pressure Temperature Relative Humidity Dew Point   
(mb) (inHg) (mb) (inHg) (C) (F) (%) (C) (F)
00:05 1017 30.03 846 24.98 20.7 69.2 41 7 44.5
00:10 1017 30.03 846 24.98 20.7 69.3 41 7.2 45
00:15 1016 30 845 24.95 20.2 68.3 43 7.3 45.1
00:20 1016 30 845 24.95 20.1 68.2 41 6.7 44
00:25 1016 30 845 24.95 21 69.7 35 5.2 41.4
00:30 1016 30 845 24.95 21.7 71 34 5.4 41.8
00:35 1016 30 845 24.95 21.9 71.4 36 6.2 43.1
00:40 1016 30 845 24.95 21.8 71.2 35 5.9 42.6
00:45 1016 30 845 24.95 21.7 71 36 6.2 43.1
00:50 1016 30 845 24.95 21.7 71.1 35 5.9 42.6
00:55 1016 30 846 24.98 21.7 71 37 6.4 43.5
01:00 1016 30 845 24.95 21.3 70.4 38 6.5 43.6
01:05 1016 30 846 24.98 21.1 69.9 38 6.4 43.5
01:10 1017 30.03 846 24.98 20.9 69.6 41 7.2 44.9
01:15 1016 30 846 24.98 20.6 69.1 40 6.8 44.3
01:20 1016 30 845 24.95 20.7 69.2 41 7 44.7
01:25 1016 30 845 24.95 20.4 68.7 41 7 44.5
01:30 1016 30 845 24.95 20.2 68.4 43 7.3 45.1
01:35 1016 30 846 24.98 20 68.1 44 7.6 45.6
01:40 1016 30 845 24.95 19.6 67.2 46 7.8 46
01:45 1016 30 845 24.95 19.3 66.7 47 7.7 45.9
01:50 1016 30 845 24.95 19.1 66.3 47 7.8 46
01:55 1016 30 845 24.95 18.9 66 48 7.8 46
02:00 1016 30 845 24.95 18.8 65.8 49 7.9 46.2
02:05 1016 30 845 24.95 18.8 65.8 47 7.2 45
02:10 1016 30 845 24.95 19.1 66.4 45 7.2 44.9
02:15 1016 30 845 24.95 19.3 66.7 45 7.2 45
02:20 1016 30 845 24.95 19.4 67 45 7.4 45.2
02:25 1016 30 845 24.95 19.4 66.9 45 7.4 45.3
02:30 1016 30 845 24.95 19.4 66.9 44 6.9 44.5
02:35 1016 30 845 24.95 19.6 67.2 44 7.1 44.7
02:40 1016 30 845 24.95 19.3 66.7 47 8 46.3
02:45 1016 30 845 24.95 18.8 65.9 48 7.7 45.9
02:50 1016 30 845 24.95 18.9 65.9 47 7.6 45.6
02:55 1016 30 845 24.95 19 66.1 47 7.5 45.5
03:00 1016 30 845 24.95 18.8 65.9 50 8.4 47.1
03:05 1016 30 845 24.95 18.4 65.1 49 7.5 45.6
03:10 1016 30 845 24.95 18.5 65.4 49 7.6 45.8
03:15 1016 30 845 24.95 18.4 65 51 8.2 46.8
03:20 1016 30 845 24.95 17.9 64.3 52 8.2 46.7
03:25 1016 30 845 24.95 17.6 63.7 54 8.3 47
03:30 1016 30 845 24.95 17.4 63.3 56 8.6 47.5
03:35 1016 30 846 24.98 17.2 63 58 8.9 48
03:40 1016 30 845 24.95 17.1 62.8 57 8.7 47.6
03:45 1016 30 846 24.98 17 62.5 59 8.9 48
03:50 1016 30 845 24.95 16.8 62.3 59 8.8 47.8
03:55 1016 30 846 24.98 16.5 61.8 60 8.9 48
04:00 1016 30 846 24.98 16.5 61.7 60 8.7 47.7
04:05 1016 30 845 24.95 16.4 61.5 60 8.6 47.6
04:10 1016 30 845 24.95 15.7 60.2 68 9.9 49.8
04:15 1016 30 845 24.95 15.6 60.1 65 9.1 48.5
04:20 1016 30 845 24.95 15.3 59.6 64 8.7 47.6
04:25 1016 30 845 24.95 15.1 59.2 64 8.5 47.2
04:30 1016 30 845 24.95 14.6 58.3 67 8.6 47.5
04:35 1016 30 845 24.95 14.4 57.9 67 8.3 47
04:40 1016 30 845 24.95 14.3 57.8 67 8.4 47
04:45 1016 30 845 24.95 14.3 57.8 66 8.2 46.8
04:50 1016 30 845 24.95 14.5 58.1 65 8 46.5
04:55 1016 30 845 24.95 14.3 57.7 66 8 46.5
05:00 1016 30 845 24.95 14.1 57.4 66 7.9 46.3
05:05 1016 30 846 24.98 14 57.1 66 7.9 46.2
05:10 1017 30.03 846 24.98 14 57.2 67 7.9 46.3
05:15 1016 30 846 24.98 14.3 57.8 66 8.1 46.7
05:20 1016 30 846 24.98 14 57.1 69 8.3 47
05:25 1017 30.03 846 24.98 13.3 56 70 8.1 46.5
05:30 1016 30 846 24.98 13.2 55.8 70 8 46.4
05:35 1016 30 846 24.98 13.2 55.7 70 7.8 46
05:40 1016 30 846 24.98 13.3 56 68 7.6 45.7
05:45 1016 30 845 24.95 13.8 56.8 67 7.8 46.1
05:50 1016 30 846 24.98 13.8 56.8 65 7.4 45.3
05:55 1016 30 846 24.98 14.2 57.5 65 7.8 46
06:00 1016 30 846 24.98 14 57.1 66 7.8 46.1
06:05 1016 30 845 24.95 13.8 56.9 67 8 46.3
06:10 1016 30 845 24.95 13.7 56.6 64 7.1 44.9
06:15 1016 30 845 24.95 14 57.1 64 7.3 45.2
06:20 1016 30 846 24.98 13.6 56.5 65 7.2 45
06:25 1016 30 845 24.95 13.9 57 64 7.3 45.1
06:30 1016 30 845 24.95 13.6 56.5 66 7.4 45.3
06:35 1016 30 846 24.98 13.1 55.5 68 7.4 45.3
06:40 1016 30 846 24.98 12.7 54.9 69 7.3 45.1
06:45 1016 30 846 24.98 12.7 54.9 69 7.2 44.9
06:50 1016 30 846 24.98 13.4 56.2 65 6.9 44.5
06:55 1016 30 846 24.98 13.9 57 64 7.3 45.2
07:00 1016 30 846 24.98 13.8 56.8 65 7.4 45.4
07:05 1016 30 846 24.98 13.9 57.1 63 7.1 44.8
07:10 1016 30 846 24.98 14.2 57.5 63 7.2 45
07:15 1016 30 846 24.98 14.5 58.1 62 7.3 45.1
07:20 1016 30 846 24.98 14.7 58.5 62 7.5 45.5
07:25 1016 30 845 24.95 14.7 58.4 63 7.7 45.8
07:30 1016 30 845 24.95 14.7 58.4 63 7.7 45.9
07:35 1016 30 845 24.95 14.4 58 64 7.9 46.2
07:40 1016 30 845 24.95 14.5 58.2 63 7.7 45.8
07:45 1016 30 845 24.95 15 58.9 61 7.6 45.7
07:50 1016 30 845 24.95 15.6 60.1 59 7.8 46
07:55 1016 30 845 24.95 15.8 60.5 59 7.9 46.3
08:00 1016 30 845 24.95 15.9 60.7 59 7.9 46.3
08:05 1016 30 845 24.95 16.1 61 59 8.2 46.7
08:10 1016 30 845 24.95 16.1 61 60 8.4 47.2
08:15 1016 30 845 24.95 16.3 61.3 60 8.7 47.7
08:20 1016 30 845 24.95 16.7 62.1 59 8.8 47.8
08:25 1016 30 845 24.95 17.3 63.2 60 9.5 49
08:30 1016 30 845 24.95 17.7 63.9 58 9.4 49
08:35 1016 30 845 24.95 17.7 63.9 54 8.6 47.4
08:40 1016 30 845 24.95 18.1 64.5 56 9.2 48.5
08:45 1016 30 845 24.95 18.6 65.5 51 8.3 47
08:50 1016 30 845 24.95 19 66.2 51 8.8 47.8
08:55 1016 30 845 24.95 18.9 66.1 52 8.9 48
09:00 1016 30 845 24.95 19.5 67.2 49 8.6 47.5
09:05 1016 30 845 24.95 20.1 68.2 47 8.6 47.5
09:10 1016 30 845 24.95 20.5 68.9 47 8.9 48
09:15 1016 30 845 24.95 19.1 66.4 51 9 48.1
09:20 1016 30 845 24.95 18.5 65.3 51 8.3 46.9
09:25 1016 30 845 24.95 18.3 64.9 52 8.3 46.9
09:30 1016 30 845 24.95 18 64.5 54 8.7 47.7
09:35 1016 30 845 24.95 18 64.4 53 8.5 47.3
09:40 1016 30 845 24.95 18.3 64.9 53 8.6 47.6
09:45 1016 30 845 24.95 18.1 64.7 54 8.8 47.8
09:50 1016 30 846 24.98 18.2 64.7 54 8.7 47.7
09:55 1016 30 846 24.98 18.2 64.8 54 8.9 48
10:00 1017 30.03 846 24.98 18.2 64.7 53 8.7 47.6
10:05 1017 30.03 846 24.98 18.3 64.9 59 10.1 50.2
10:10 1017 30.03 846 24.98 18 64.5 61 10.4 50.7
10:15 1017 30.03 846 24.98 17.9 64.2 62 10.6 51
10:20 1018 30.06 847 25.01 17.8 64 62 10.5 50.9
10:25 1018 30.06 847 25.01 17.5 63.6 62 10.4 50.6
10:30 1018 30.06 847 25.01 17.4 63.4 63 10.3 50.6
10:35 1018 30.06 847 25.01 17.4 63.2 63 10.4 50.6
10:40 1018 30.06 847 25.01 17.4 63.4 62 10.1 50.2
10:45 1018 30.06 847 25.01 17.6 63.7 62 10.3 50.6
10:50 1018 30.06 847 25.01 17.7 63.8 64 10.7 51.3
10:55 1018 30.06 847 25.01 17.6 63.6 69 11.8 53.3
11:00 1018 30.06 847 25.01 17 62.5 69 11.3 52.4
11:05 1018 30.06 847 25.01 16.4 61.6 67 10.5 50.8
11:10 1018 30.06 847 25.01 16.5 61.6 65 10 50
11:15 1018 30.06 847 25.01 16.7 62 66 10.4 50.7
11:20 1018 30.06 847 25.01 16.9 62.4 66 10.6 51.1
11:25 1018 30.06 848 25.04 17 62.7 64 10.3 50.6
11:30 1019 30.09 848 25.04 17.1 62.7 66 10.7 51.2
11:35 1019 30.09 848 25.04 16.9 62.5 65 10.4 50.8
11:40 1019 30.09 848 25.04 17.2 62.9 61 9.8 49.6
11:45 1020 30.12 849 25.07 17.7 63.8 62 10.3 50.6
11:50 1020 30.12 849 25.07 17.4 63.3 63 10.4 50.7
11:55 1020 30.12 849 25.07 17.1 62.7 63 10.1 50.1
12:00 1020 30.12 849 25.07 16.5 61.7 69 11 51.7
12:05 1020 30.12 849 25.07 15.7 60.2 73 10.9 51.7
12:10 1020 30.12 849 25.07 15.4 59.8 72 10.5 51
12:15 1020 30.12 849 25.07 15 59 78 11.3 52.4
12:20 1020 30.12 849 25.07 14.7 58.4 80 11.2 52.2
12:25 1019 30.09 848 25.04 14.5 58.1 83 11.6 53
12:30 1018 30.06 848 25.04 14 57.1 87 11.8 53.2
12:35 1018 30.06 847 25.01 13.7 56.7 86 11.4 52.5
12:40 1018 30.06 847 25.01 13.9 57 84 11.3 52.3
12:45 1017 30.03 847 25.01 14.1 57.4 83 11.2 52.2
12:50 1017 30.03 846 24.98 14.1 57.4 84 11.4 52.6
12:55 1017 30.03 846 24.98 14.3 57.8 81 11.1 51.9
13:00 1018 30.06 847 25.01 14.6 58.3 80 11.2 52.2
13:05 1018 30.06 847 25.01 15 58.9 80 11.6 52.8
13:10 1018 30.06 847 25.01 15 59 78 11.2 52.1
13:15 1018 30.06 847 25.01 15.3 59.5 77 11.3 52.4
13:20 1018 30.06 847 25.01 15.6 60.1 78 11.8 53.2
13:25 1017 30.03 846 24.98 15.1 59.2 82 12.1 53.7
13:30 1017 30.03 846 24.98 14.7 58.5 81 11.6 52.9
13:35 1017 30.03 846 24.98 14.7 58.5 80 11.4 52.5
13:40 1017 30.03 846 24.98 14.8 58.7 81 11.7 53.1
13:45 1017 30.03 846 24.98 15 59 80 11.6 52.9
13:50 1017 30.03 846 24.98 15 59.1 81 11.8 53.2
13:55 1017 30.03 846 24.98 15 59 80 11.6 52.8
14:00 1017 30.03 846 24.98 15.1 59.3 78 11.4 52.5
14:05 1017 30.03 846 24.98 15.5 59.9 80 12 53.7
14:10 1016 30 846 24.98 15.3 59.6 81 12.2 53.9
14:15 1016 30 846 24.98 15.5 59.9 80 12.2 53.9
14:20 1016 30 845 24.95 15.7 60.3 79 12.1 53.7
14:25 1016 30 845 24.95 16 60.9 76 11.9 53.5
14:30 1016 30 845 24.95 16.5 61.7 77 12.5 54.4
14:35 1016 30 845 24.95 17.4 63.4 73 12.7 54.8
14:40 1016 30 845 24.95 18.4 65.1 72 13.4 56.1
14:45 1016 30 845 24.95 18.9 66.1 69 13.3 55.9
14:50 1016 30 845 24.95 19.4 67 66 13 55.5
14:55 1015 29.97 845 24.95 19.9 67.9 64 12.9 55.3
15:00 1015 29.97 844 24.92 20.3 68.6 60 12.4 54.3
15:05 1015 29.97 844 24.92 20.5 68.9 57 11.8 53.3
15:10 1015 29.97 844 24.92 20.8 69.4 56 11.8 53.3
15:15 1015 29.97 844 24.92 21 69.8 56 12.1 53.8
15:20 1015 29.97 844 24.92 21.2 70.1 55 11.8 53.3
15:25 1015 29.97 844 24.92 21.4 70.4 52 11.2 52.2
15:30 1015 29.97 844 24.92 21.7 71 52 11.4 52.5
15:35 1015 29.97 844 24.92 22.2 72 47 10.5 50.9
15:40 1015 29.97 844 24.92 22.4 72.3 47 10.7 51.3
15:45 1014 29.94 844 24.92 22.7 72.8 46 10.7 51.3
15:50 1014 29.94 844 24.92 22.8 73.1 44 10.3 50.5
15:55 1014 29.94 844 24.92 22.9 73.2 45 10.6 51
16:00 1014 29.94 844 24.92 23.2 73.8 44 10.6 51.2
16:05 1014 29.94 843 24.89 23.1 73.6 46 11.2 52.2
16:10 1014 29.94 843 24.89 22.7 72.9 46 10.7 51.3
16:15 1014 29.94 843 24.89 23 73.3 46 10.9 51.6
16:20 1014 29.94 843 24.89 23.3 74 44 10.7 51.2
16:25 1014 29.94 843 24.89 23.6 74.4 44 10.9 51.6
16:30 1014 29.94 843 24.89 23.5 74.4 44 10.9 51.6
16:35 1014 29.94 843 24.89 23.1 73.5 46 11 51.7
16:40 1014 29.94 843 24.89 22.8 73.1 46 10.7 51.3
16:45 1014 29.94 843 24.89 22.5 72.4 49 11.3 52.3
16:50 1014 29.94 844 24.92 21.6 70.9 55 12.2 54
16:55 1015 29.97 844 24.92 20.5 68.8 59 12.2 53.9
17:00 1015 29.97 844 24.92 19.7 67.5 63 12.5 54.6
17:05 1015 29.97 845 24.95 18.7 65.6 67 12.5 54.6
17:10 1015 29.97 844 24.92 18 64.4 70 12.4 54.4
17:15 1015 29.97 844 24.92 17.7 63.9 73 12.9 55.2
17:20 1016 30 845 24.95 17.6 63.7 73 12.7 54.9
17:25 1015 29.97 845 24.95 16.9 62.5 81 13.7 56.6
17:30 1015 29.97 844 24.92 16.9 62.4 82 13.9 57
17:35 1015 29.97 844 24.92 17.4 63.4 83 14.5 58.1
17:40 1014 29.94 844 24.92 17.5 63.5 82 14.5 58.1
17:45 1014 29.94 844 24.92 17.5 63.5 83 14.7 58.4
17:50 1014 29.94 843 24.89 17.7 63.8 77 13.5 56.4
17:55 1014 29.94 843 24.89 17.6 63.7 80 14.2 57.6
18:00 1014 29.94 843 24.89 17.5 63.5 78 13.8 56.8
18:05 1014 29.94 843 24.89 17.9 64.2 77 13.8 56.9
18:10 1014 29.94 843 24.89 18 64.4 75 13.6 56.5
18:15 1014 29.94 843 24.89 18.1 64.5 76 13.8 56.9
18:20 1014 29.94 843 24.89 18.6 65.6 70 13.2 55.7
18:25 1014 29.94 843 24.89 18.9 65.9 69 13 55.4
18:30 1014 29.94 843 24.89 18.8 65.9 71 13.4 56.2
18:35 1014 29.94 843 24.89 18.8 65.8 71 13.4 56.1
18:40 1014 29.94 843 24.89 18.5 65.4 72 13.5 56.3
18:45 1014 29.94 843 24.89 18.6 65.4 71 13.2 55.8
18:50 1014 29.94 843 24.89 19 66.2 67 12.8 55.1
18:55 1014 29.94 843 24.89 19.3 66.7 66 13 55.3
19:00 1014 29.94 843 24.89 19.3 66.8 64 12.4 54.3
19:05 1014 29.94 843 24.89 19.3 66.8 64 12.5 54.6
19:10 1014 29.94 843 24.89 19.1 66.4 65 12.4 54.3
19:15 1014 29.94 843 24.89 19.1 66.4 63 12 53.5
19:20 1014 29.94 843 24.89 19.1 66.4 64 12.2 53.9
19:25 1013 29.91 843 24.89 19.1 66.4 64 12.2 53.9
19:30 1013 29.91 842 24.86 19.1 66.3 64 12.2 53.9
19:35 1013 29.91 842 24.86 18.9 65.9 65 12.2 54
19:40 1013 29.91 842 24.86 18.7 65.7 68 12.7 54.9
19:45 1013 29.91 843 24.89 18.6 65.5 65 12 53.6
19:50 1013 29.91 843 24.89 18.7 65.6 64 11.9 53.4
19:55 1014 29.94 843 24.89 18.7 65.7 64 11.8 53.3
20:00 1013 29.91 843 24.89 18.7 65.7 65 12 53.6
20:05 1013 29.91 843 24.89 18.6 65.5 66 12.1 53.8
20:10 1013 29.91 843 24.89 18.5 65.4 65 12 53.5
20:15 1013 29.91 843 24.89 18.6 65.4 64 11.7 53.1
20:20 1013 29.91 842 24.86 18.6 65.4 63 11.4 52.6
20:25 1013 29.91 842 24.86 18.6 65.5 63 11.5 52.6
20:30 1013 29.91 842 24.86 18.5 65.2 64 11.7 53
20:35 1013 29.91 843 24.89 18.3 64.9 65 11.6 52.9
20:40 1013 29.91 843 24.89 18.1 64.6 65 11.6 52.8
20:45 1013 29.91 843 24.89 18 64.4 65 11.4 52.5
20:50 1014 29.94 843 24.89 18.1 64.6 64 11.2 52.2
20:55 1014 29.94 843 24.89 18.2 64.8 64 11.4 52.5
21:00 1014 29.94 843 24.89 18.1 64.6 63 11.1 52
21:05 1014 29.94 843 24.89 18.4 65.1 62 11.1 52
21:10 1014 29.94 843 24.89 18.4 65.1 63 11.2 52.2
21:15 1014 29.94 843 24.89 18.3 64.9 65 11.7 53.1
21:20 1014 29.94 843 24.89 18.1 64.5 65 11.5 52.7
21:25 1014 29.94 843 24.89 18 64.4 65 11.3 52.4
21:30 1013 29.91 843 24.89 18 64.3 65 11.3 52.3
21:35 1014 29.94 843 24.89 18 64.3 64 11.1 51.9
21:40 1014 29.94 843 24.89 17.9 64.2 65 11.3 52.3
21:45 1014 29.94 843 24.89 17.8 64.1 64 10.9 51.7
21:50 1014 29.94 843 24.89 18 64.4 63 11 51.9
21:55 1014 29.94 844 24.92 17.9 64.2 63 10.9 51.6
22:00 1014 29.94 844 24.92 17.9 64.2 63 10.8 51.5
22:05 1014 29.94 844 24.92 17.8 64.1 63 10.7 51.2
22:10 1015 29.97 844 24.92 18 64.3 62 10.6 51.1
22:15 1015 29.97 844 24.92 18 64.3 62 10.7 51.3
22:20 1015 29.97 844 24.92 17.6 63.7 66 11.3 52.3
22:25 1015 29.97 844 24.92 17.1 62.8 68 11.2 52.1
22:30 1015 29.97 844 24.92 17 62.6 68 11.2 52.1
22:35 1015 29.97 844 24.92 17 62.6 68 11 51.9
22:40 1014 29.94 844 24.92 17.1 62.7 67 10.8 51.5
22:45 1014 29.94 843 24.89 17.6 63.6 58 9.4 48.9
22:50 1013 29.91 843 24.89 18.2 64.7 61 10.7 51.2
22:55 1014 29.94 843 24.89 17.9 64.3 64 11 51.8
23:00 1014 29.94 843 24.89 17.7 63.9 64 10.8 51.4
23:05 1014 29.94 843 24.89 17.3 63.2 66 11 51.8
23:10 1014 29.94 843 24.89 17 62.6 67 10.8 51.5
23:15 1014 29.94 843 24.89 17.2 63 63 10.2 50.4
23:20 1014 29.94 843 24.89 17.6 63.7 61 10.2 50.3
23:25 1014 29.94 843 24.89 17.7 63.8 62 10.3 50.6
23:30 1014 29.94 843 24.89 17.5 63.5 62 10.3 50.5
23:35 1014 29.94 843 24.89 17.5 63.5 63 10.4 50.7
23:40 1014 29.94 843 24.89 17.4 63.2 63 10.3 50.6
23:45 1014 29.94 843 24.89 17.2 63 64 10.3 50.6
23:50 1014 29.94 843 24.89 17.2 62.9 63 10.1 50.2
23:55 1014 29.94 843 24.89 17.2 63 63 10.2 50.3
24:00 1014 29.94 843 24.89 17.2 62.9 62 9.8 49.7